createdAt,value
2018-12-29T00:05:43.280Z,89.9
2018-12-29T00:21:06.695Z,89.1
2018-12-29T00:36:17.003Z,89.4
2018-12-29T00:51:29.339Z,90
2018-12-29T01:06:41.814Z,90.8
2018-12-29T01:21:53.465Z,91.4
2018-12-29T01:37:06.552Z,92.1
2018-12-29T01:52:18.694Z,92.6
2018-12-29T02:07:31.155Z,92.6
2018-12-29T02:22:37.554Z,90.1
2018-12-29T02:37:55.647Z,89.8
2018-12-29T02:53:08.033Z,89
2018-12-29T03:08:20.412Z,88.1
2018-12-29T03:23:33.089Z,88
2018-12-29T03:38:45.326Z,88
2018-12-29T03:53:57.499Z,88
2018-12-29T04:09:10.028Z,88
2018-12-29T04:24:22.224Z,88.7
2018-12-29T04:39:31.887Z,87.8
2018-12-29T04:54:47.152Z,88.3
2018-12-29T05:09:59.355Z,87.8
2018-12-29T05:25:11.766Z,86
2018-12-29T05:40:16.012Z,85.9
2018-12-29T05:55:36.487Z,86.5
2018-12-29T06:10:49.196Z,87.2
2018-12-29T06:26:01.215Z,88.8
2018-12-29T06:41:13.601Z,90.2
2018-12-29T06:56:25.849Z,90.3
2018-12-29T07:11:38.906Z,91
2018-12-29T07:26:50.728Z,89.5
2018-12-29T07:42:02.928Z,88.8
2018-12-29T07:57:10.634Z,88.5
2018-12-29T08:12:27.600Z,88.7
2018-12-29T08:27:40.916Z,88.5
2018-12-29T08:42:52.323Z,89.2
2018-12-29T08:58:05.099Z,88.5
2018-12-29T09:13:17.036Z,88.1
2018-12-29T09:28:29.499Z,88.2
2018-12-29T09:43:41.942Z,87
2018-12-29T09:58:54.400Z,86.7
2018-12-29T10:14:04.597Z,86.9
2018-12-29T10:29:19.248Z,87.4
2018-12-29T10:44:31.723Z,88.5
2018-12-29T10:59:44.196Z,89.2
2018-12-29T11:14:49.472Z,89.7
2018-12-29T11:30:09.047Z,89.8
2018-12-29T11:45:21.616Z,89.9
2018-12-29T12:00:34.088Z,89.8
2018-12-29T12:15:47.015Z,88.8
2018-12-29T12:30:59.426Z,88.1
2018-12-29T12:46:11.878Z,87.2
2018-12-29T13:01:24.566Z,86.4
2018-12-29T13:16:37.256Z,86.8
2018-12-29T13:31:45.089Z,88.7
2018-12-29T13:47:02.454Z,88.5
2018-12-29T14:02:15.902Z,79.1
2018-12-29T14:17:29.610Z,78.5
2018-12-29T14:32:42.920Z,79.1
2018-12-29T14:47:56.001Z,81.2
2018-12-29T15:03:08.807Z,83
2018-12-29T15:18:22.205Z,82.8
2018-12-29T15:33:34.431Z,81.7
2018-12-29T15:48:42.032Z,80.4
2018-12-29T16:03:59.821Z,81.2
2018-12-29T16:19:14.695Z,80.8
2018-12-29T16:34:25.296Z,79.5
2018-12-29T16:49:38.875Z,79.2
2018-12-29T17:04:50.868Z,78
2018-12-29T17:20:03.914Z,77.2
2018-12-29T17:35:16.486Z,75.6
2018-12-29T17:50:29.165Z,75
2018-12-29T18:05:38.826Z,74.3
2018-12-29T18:20:54.855Z,73.1
2018-12-29T18:36:07.974Z,73.2
2018-12-29T18:51:20.705Z,71.7
2018-12-29T19:06:33.107Z,72.1
2018-12-29T19:21:45.763Z,71.2
2018-12-29T19:30:05.944Z,68
2018-12-29T19:45:31.171Z,71.2
2018-12-29T20:00:45.006Z,70.3
2018-12-29T20:15:56.929Z,69.8
2018-12-29T20:31:09.598Z,70.8
2018-12-29T20:46:15.092Z,74.6
2018-12-29T21:01:34.742Z,74.5
2018-12-29T21:16:47.092Z,75.8
2018-12-29T21:31:59.596Z,77.4
2018-12-29T21:47:12.030Z,78.6
2018-12-29T22:02:25.168Z,79.2
2018-12-29T22:17:37.033Z,79.7
2018-12-29T22:32:49.583Z,79.1
2018-12-29T22:48:02.185Z,76.8
2018-12-29T23:03:10.296Z,75.3
2018-12-29T23:18:28.451Z,74
2018-12-29T23:33:40.268Z,76.2
2018-12-29T23:48:52.924Z,79.7
